sensor_id;sensor_type;location;lat;lon;timestamp;P1;durP1;ratioP1;P2;durP2;ratioP2
25409;SDS011;13339;50.840;4.346;2023-07-20T00:01:45;7.27;;;3.47;;
25409;SDS011;13339;50.840;4.346;2023-07-20T00:04:13;9.70;;;2.97;;
25409;SDS011;13339;50.840;4.346;2023-07-20T00:06:39;10.87;;;3.70;;
25409;SDS011;13339;50.840;4.346;2023-07-20T00:09:05;7.63;;;3.57;;
25409;SDS011;13339;50.840;4.346;2023-07-20T00:11:35;7.37;;;3.43;;
25409;SDS011;13339;50.840;4.346;2023-07-20T00:14:01;10.27;;;3.67;;
25409;SDS011;13339;50.840;4.346;2023-07-20T00:16:27;10.17;;;3.33;;
25409;SDS011;13339;50.840;4.346;2023-07-20T00:18:53;12.00;;;4.10;;
25409;SDS011;13339;50.840;4.346;2023-07-20T00:21:18;6.97;;;2.97;;
25409;SDS011;13339;50.840;4.346;2023-07-20T00:23:44;7.97;;;3.30;;
25409;SDS011;13339;50.840;4.346;2023-07-20T00:26:10;6.80;;;3.00;;
25409;SDS011;13339;50.840;4.346;2023-07-20T00:28:36;7.63;;;3.77;;
25409;SDS011;13339;50.840;4.346;2023-07-20T00:31:01;14.60;;;3.63;;
25409;SDS011;13339;50.840;4.346;2023-07-20T00:33:28;7.33;;;3.50;;
25409;SDS011;13339;50.840;4.346;2023-07-20T00:35:53;11.63;;;3.40;;
25409;SDS011;13339;50.840;4.346;2023-07-20T00:38:19;9.73;;;3.73;;
25409;SDS011;13339;50.840;4.346;2023-07-20T00:40:45;6.73;;;3.10;;
25409;SDS011;13339;50.840;4.346;2023-07-20T00:43:11;9.90;;;3.27;;
25409;SDS011;13339;50.840;4.346;2023-07-20T00:45:37;7.67;;;3.27;;
25409;SDS011;13339;50.840;4.346;2023-07-20T00:48:04;6.77;;;3.13;;
25409;SDS011;13339;50.840;4.346;2023-07-20T00:50:31;9.23;;;3.40;;
25409;SDS011;13339;50.840;4.346;2023-07-20T00:52:58;7.00;;;3.30;;
25409;SDS011;13339;50.840;4.346;2023-07-20T00:55:25;9.43;;;3.27;;
25409;SDS011;13339;50.840;4.346;2023-07-20T00:57:51;10.37;;;3.53;;
25409;SDS011;13339;50.840;4.346;2023-07-20T01:00:17;9.57;;;3.83;;
25409;SDS011;13339;50.840;4.346;2023-07-20T01:02:44;12.47;;;3.40;;
25409;SDS011;13339;50.840;4.346;2023-07-20T01:05:09;6.33;;;3.20;;
25409;SDS011;13339;50.840;4.346;2023-07-20T01:07:49;8.37;;;3.47;;
25409;SDS011;13339;50.840;4.346;2023-07-20T01:10:40;10.63;;;3.90;;
25409;SDS011;13339;50.840;4.346;2023-07-20T01:13:19;7.37;;;3.53;;
25409;SDS011;13339;50.840;4.346;2023-07-20T01:15:50;12.80;;;3.53;;
25409;SDS011;13339;50.840;4.346;2023-07-20T01:18:18;13.27;;;3.80;;
25409;SDS011;13339;50.840;4.346;2023-07-20T01:20:44;9.37;;;3.37;;
25409;SDS011;13339;50.840;4.346;2023-07-20T01:23:19;15.57;;;4.00;;
25409;SDS011;13339;50.840;4.346;2023-07-20T01:28:43;7.57;;;3.40;;
25409;SDS011;13339;50.840;4.346;2023-07-20T01:31:30;10.57;;;3.57;;
25409;SDS011;13339;50.840;4.346;2023-07-20T01:33:58;11.43;;;4.07;;
25409;SDS011;13339;50.840;4.346;2023-07-20T01:36:28;9.13;;;3.60;;
25409;SDS011;13339;50.840;4.346;2023-07-20T01:38:57;8.87;;;3.90;;
25409;SDS011;13339;50.840;4.346;2023-07-20T01:41:23;9.43;;;4.00;;
25409;SDS011;13339;50.840;4.346;2023-07-20T01:43:49;13.80;;;4.07;;
25409;SDS011;13339;50.840;4.346;2023-07-20T01:46:15;10.17;;;4.00;;
25409;SDS011;13339;50.840;4.346;2023-07-20T01:48:40;10.53;;;4.00;;
25409;SDS011;13339;50.840;4.346;2023-07-20T01:51:06;13.93;;;3.93;;
25409;SDS011;13339;50.840;4.346;2023-07-20T01:53:31;10.13;;;4.63;;
25409;SDS011;13339;50.840;4.346;2023-07-20T01:55:57;9.30;;;4.63;;
25409;SDS011;13339;50.840;4.346;2023-07-20T01:58:23;8.60;;;4.20;;
25409;SDS011;13339;50.840;4.346;2023-07-20T02:00:49;17.50;;;4.63;;
25409;SDS011;13339;50.840;4.346;2023-07-20T02:03:15;14.17;;;4.87;;
25409;SDS011;13339;50.840;4.346;2023-07-20T02:05:44;8.30;;;4.07;;
25409;SDS011;13339;50.840;4.346;2023-07-20T02:08:10;13.63;;;5.07;;
25409;SDS011;13339;50.840;4.346;2023-07-20T02:10:35;11.70;;;4.63;;
25409;SDS011;13339;50.840;4.346;2023-07-20T02:13:01;7.67;;;4.47;;
25409;SDS011;13339;50.840;4.346;2023-07-20T02:15:27;9.23;;;4.63;;
25409;SDS011;13339;50.840;4.346;2023-07-20T02:17:53;15.57;;;4.80;;
25409;SDS011;13339;50.840;4.346;2023-07-20T02:20:19;12.17;;;4.47;;
25409;SDS011;13339;50.840;4.346;2023-07-20T02:22:45;12.00;;;5.20;;
25409;SDS011;13339;50.840;4.346;2023-07-20T02:25:10;9.40;;;5.33;;
25409;SDS011;13339;50.840;4.346;2023-07-20T02:27:36;8.87;;;4.93;;
25409;SDS011;13339;50.840;4.346;2023-07-20T02:30:02;10.43;;;4.70;;
25409;SDS011;13339;50.840;4.346;2023-07-20T02:32:29;14.07;;;5.50;;
25409;SDS011;13339;50.840;4.346;2023-07-20T02:34:55;13.40;;;5.43;;
25409;SDS011;13339;50.840;4.346;2023-07-20T02:37:21;13.03;;;5.33;;
25409;SDS011;13339;50.840;4.346;2023-07-20T02:39:46;16.77;;;5.77;;
25409;SDS011;13339;50.840;4.346;2023-07-20T02:42:12;17.70;;;6.10;;
25409;SDS011;13339;50.840;4.346;2023-07-20T02:44:38;12.13;;;5.97;;
25409;SDS011;13339;50.840;4.346;2023-07-20T02:47:04;12.07;;;5.63;;
25409;SDS011;13339;50.840;4.346;2023-07-20T02:49:29;14.63;;;5.70;;
25409;SDS011;13339;50.840;4.346;2023-07-20T02:51:55;10.20;;;6.00;;
25409;SDS011;13339;50.840;4.346;2023-07-20T02:54:21;14.90;;;7.60;;
25409;SDS011;13339;50.840;4.346;2023-07-20T02:56:46;15.70;;;6.37;;
25409;SDS011;13339;50.840;4.346;2023-07-20T02:59:12;15.00;;;7.23;;
25409;SDS011;13339;50.840;4.346;2023-07-20T03:01:38;11.97;;;7.20;;
25409;SDS011;13339;50.840;4.346;2023-07-20T03:04:03;18.60;;;7.67;;
25409;SDS011;13339;50.840;4.346;2023-07-20T03:06:29;15.33;;;7.37;;
25409;SDS011;13339;50.840;4.346;2023-07-20T03:08:55;15.50;;;7.37;;
25409;SDS011;13339;50.840;4.346;2023-07-20T03:11:20;16.60;;;7.27;;
25409;SDS011;13339;50.840;4.346;2023-07-20T03:13:46;17.53;;;8.83;;
25409;SDS011;13339;50.840;4.346;2023-07-20T03:16:13;16.30;;;8.93;;
25409;SDS011;13339;50.840;4.346;2023-07-20T03:18:40;18.97;;;8.63;;
25409;SDS011;13339;50.840;4.346;2023-07-20T03:21:06;18.57;;;9.20;;
25409;SDS011;13339;50.840;4.346;2023-07-20T03:23:33;21.17;;;8.90;;
25409;SDS011;13339;50.840;4.346;2023-07-20T03:25:59;21.67;;;9.03;;
25409;SDS011;13339;50.840;4.346;2023-07-20T03:28:25;18.23;;;8.50;;
25409;SDS011;13339;50.840;4.346;2023-07-20T03:30:54;17.73;;;9.37;;
25409;SDS011;13339;50.840;4.346;2023-07-20T03:33:21;18.93;;;8.57;;
25409;SDS011;13339;50.840;4.346;2023-07-20T03:35:49;22.20;;;9.17;;
25409;SDS011;13339;50.840;4.346;2023-07-20T03:38:15;24.20;;;9.60;;
25409;SDS011;13339;50.840;4.346;2023-07-20T03:40:48;23.33;;;9.90;;
25409;SDS011;13339;50.840;4.346;2023-07-20T03:43:24;17.40;;;9.30;;
25409;SDS011;13339;50.840;4.346;2023-07-20T03:45:51;17.27;;;8.33;;
25409;SDS011;13339;50.840;4.346;2023-07-20T03:48:21;18.97;;;9.10;;
25409;SDS011;13339;50.840;4.346;2023-07-20T03:50:49;20.30;;;9.00;;
25409;SDS011;13339;50.840;4.346;2023-07-20T03:53:16;14.07;;;9.20;;
25409;SDS011;13339;50.840;4.346;2023-07-20T03:55:49;16.30;;;9.50;;
25409;SDS011;13339;50.840;4.346;2023-07-20T03:58:16;17.03;;;9.70;;
25409;SDS011;13339;50.840;4.346;2023-07-20T04:00:45;19.80;;;10.43;;
25409;SDS011;13339;50.840;4.346;2023-07-20T04:03:12;17.03;;;10.43;;
25409;SDS011;13339;50.840;4.346;2023-07-20T04:05:38;17.90;;;9.97;;
25409;SDS011;13339;50.840;4.346;2023-07-20T04:08:04;21.07;;;10.07;;
25409;SDS011;13339;50.840;4.346;2023-07-20T04:10:29;23.47;;;9.90;;
25409;SDS011;13339;50.840;4.346;2023-07-20T04:12:55;22.33;;;10.20;;
25409;SDS011;13339;50.840;4.346;2023-07-20T04:15:21;17.93;;;10.70;;
25409;SDS011;13339;50.840;4.346;2023-07-20T04:17:46;21.27;;;10.60;;
25409;SDS011;13339;50.840;4.346;2023-07-20T04:20:12;21.63;;;10.07;;
25409;SDS011;13339;50.840;4.346;2023-07-20T04:22:38;14.97;;;9.90;;
25409;SDS011;13339;50.840;4.346;2023-07-20T04:25:03;23.37;;;11.43;;
25409;SDS011;13339;50.840;4.346;2023-07-20T04:27:29;22.97;;;10.60;;
25409;SDS011;13339;50.840;4.346;2023-07-20T04:29:55;21.80;;;10.13;;
25409;SDS011;13339;50.840;4.346;2023-07-20T04:32:22;18.83;;;10.37;;
25409;SDS011;13339;50.840;4.346;2023-07-20T04:34:48;15.13;;;10.47;;
25409;SDS011;13339;50.840;4.346;2023-07-20T04:37:13;20.00;;;10.00;;
25409;SDS011;13339;50.840;4.346;2023-07-20T04:39:39;17.90;;;10.10;;
25409;SDS011;13339;50.840;4.346;2023-07-20T04:42:05;18.97;;;11.30;;
25409;SDS011;13339;50.840;4.346;2023-07-20T04:44:30;22.27;;;10.30;;
25409;SDS011;13339;50.840;4.346;2023-07-20T04:46:56;23.60;;;10.73;;
25409;SDS011;13339;50.840;4.346;2023-07-20T04:49:21;20.83;;;10.67;;
25409;SDS011;13339;50.840;4.346;2023-07-20T04:51:47;18.67;;;10.60;;
25409;SDS011;13339;50.840;4.346;2023-07-20T04:54:12;19.00;;;10.20;;
25409;SDS011;13339;50.840;4.346;2023-07-20T04:56:38;17.93;;;11.10;;
25409;SDS011;13339;50.840;4.346;2023-07-20T04:59:04;16.57;;;10.03;;
25409;SDS011;13339;50.840;4.346;2023-07-20T05:01:29;18.37;;;10.73;;
25409;SDS011;13339;50.840;4.346;2023-07-20T05:03:55;16.67;;;10.67;;
25409;SDS011;13339;50.840;4.346;2023-07-20T05:06:21;17.60;;;10.73;;
25409;SDS011;13339;50.840;4.346;2023-07-20T05:08:46;23.23;;;11.97;;
25409;SDS011;13339;50.840;4.346;2023-07-20T05:11:12;23.93;;;11.30;;
25409;SDS011;13339;50.840;4.346;2023-07-20T05:13:37;18.63;;;10.97;;
25409;SDS011;13339;50.840;4.346;2023-07-20T05:16:03;16.80;;;10.60;;
25409;SDS011;13339;50.840;4.346;2023-07-20T05:18:29;18.77;;;10.57;;
25409;SDS011;13339;50.840;4.346;2023-07-20T05:20:55;18.30;;;10.67;;
25409;SDS011;13339;50.840;4.346;2023-07-20T05:23:21;21.93;;;10.87;;
25409;SDS011;13339;50.840;4.346;2023-07-20T05:25:47;17.80;;;10.97;;
25409;SDS011;13339;50.840;4.346;2023-07-20T05:28:18;23.83;;;11.20;;
25409;SDS011;13339;50.840;4.346;2023-07-20T05:30:44;26.30;;;11.50;;
25409;SDS011;13339;50.840;4.346;2023-07-20T05:33:09;19.73;;;11.80;;
25409;SDS011;13339;50.840;4.346;2023-07-20T05:35:36;21.43;;;11.33;;
25409;SDS011;13339;50.840;4.346;2023-07-20T05:38:01;21.80;;;12.00;;
25409;SDS011;13339;50.840;4.346;2023-07-20T05:40:29;20.37;;;10.93;;
25409;SDS011;13339;50.840;4.346;2023-07-20T05:42:54;18.10;;;10.87;;
25409;SDS011;13339;50.840;4.346;2023-07-20T05:45:22;18.03;;;10.23;;
25409;SDS011;13339;50.840;4.346;2023-07-20T05:47:47;17.87;;;10.60;;
25409;SDS011;13339;50.840;4.346;2023-07-20T05:50:13;20.10;;;11.50;;
25409;SDS011;13339;50.840;4.346;2023-07-20T05:52:39;21.30;;;10.97;;
25409;SDS011;13339;50.840;4.346;2023-07-20T05:55:05;18.07;;;10.70;;
25409;SDS011;13339;50.840;4.346;2023-07-20T05:57:32;20.80;;;10.70;;
25409;SDS011;13339;50.840;4.346;2023-07-20T05:59:57;18.63;;;10.53;;
25409;SDS011;13339;50.840;4.346;2023-07-20T06:02:23;16.03;;;10.70;;
25409;SDS011;13339;50.840;4.346;2023-07-20T06:04:49;21.33;;;11.27;;
25409;SDS011;13339;50.840;4.346;2023-07-20T06:07:14;14.83;;;9.97;;
25409;SDS011;13339;50.840;4.346;2023-07-20T06:09:40;19.97;;;10.67;;
25409;SDS011;13339;50.840;4.346;2023-07-20T06:12:06;17.30;;;10.77;;
25409;SDS011;13339;50.840;4.346;2023-07-20T06:14:32;16.63;;;11.03;;
25409;SDS011;13339;50.840;4.346;2023-07-20T06:16:58;21.77;;;9.67;;
25409;SDS011;13339;50.840;4.346;2023-07-20T06:19:24;20.73;;;10.07;;
25409;SDS011;13339;50.840;4.346;2023-07-20T06:21:50;16.13;;;9.47;;
25409;SDS011;13339;50.840;4.346;2023-07-20T06:24:16;15.40;;;9.17;;
25409;SDS011;13339;50.840;4.346;2023-07-20T06:26:42;15.17;;;9.10;;
25409;SDS011;13339;50.840;4.346;2023-07-20T06:29:08;17.53;;;9.57;;
25409;SDS011;13339;50.840;4.346;2023-07-20T06:31:34;15.70;;;8.97;;
25409;SDS011;13339;50.840;4.346;2023-07-20T06:34:00;17.57;;;9.03;;
25409;SDS011;13339;50.840;4.346;2023-07-20T06:36:26;14.27;;;9.33;;
25409;SDS011;13339;50.840;4.346;2023-07-20T06:38:52;14.60;;;8.10;;
25409;SDS011;13339;50.840;4.346;2023-07-20T06:41:18;9.03;;;7.37;;
25409;SDS011;13339;50.840;4.346;2023-07-20T06:43:44;12.70;;;7.77;;
25409;SDS011;13339;50.840;4.346;2023-07-20T06:46:10;14.00;;;8.43;;
25409;SDS011;13339;50.840;4.346;2023-07-20T06:48:35;13.73;;;7.73;;
25409;SDS011;13339;50.840;4.346;2023-07-20T06:51:01;15.80;;;8.17;;
25409;SDS011;13339;50.840;4.346;2023-07-20T06:53:27;13.43;;;7.83;;
25409;SDS011;13339;50.840;4.346;2023-07-20T06:55:53;15.50;;;7.40;;
25409;SDS011;13339;50.840;4.346;2023-07-20T06:58:19;9.97;;;6.90;;
25409;SDS011;13339;50.840;4.346;2023-07-20T07:00:46;10.27;;;6.20;;
25409;SDS011;13339;50.840;4.346;2023-07-20T07:03:12;9.67;;;6.20;;
25409;SDS011;13339;50.840;4.346;2023-07-20T07:05:37;8.87;;;6.07;;
25409;SDS011;13339;50.840;4.346;2023-07-20T07:08:04;12.07;;;6.00;;
25409;SDS011;13339;50.840;4.346;2023-07-20T07:10:30;8.00;;;5.50;;
25409;SDS011;13339;50.840;4.346;2023-07-20T07:12:56;8.07;;;5.20;;
25409;SDS011;13339;50.840;4.346;2023-07-20T07:15:21;6.53;;;3.70;;
25409;SDS011;13339;50.840;4.346;2023-07-20T07:17:47;5.73;;;3.53;;
25409;SDS011;13339;50.840;4.346;2023-07-20T07:20:13;7.90;;;3.40;;
25409;SDS011;13339;50.840;4.346;2023-07-20T07:22:38;7.53;;;2.90;;
25409;SDS011;13339;50.840;4.346;2023-07-20T07:25:04;5.87;;;2.70;;
25409;SDS011;13339;50.840;4.346;2023-07-20T07:27:30;9.30;;;3.40;;
25409;SDS011;13339;50.840;4.346;2023-07-20T07:29:56;4.37;;;3.20;;
25409;SDS011;13339;50.840;4.346;2023-07-20T07:32:21;5.90;;;3.27;;
25409;SDS011;13339;50.840;4.346;2023-07-20T07:34:47;5.63;;;3.13;;
25409;SDS011;13339;50.840;4.346;2023-07-20T07:37:13;10.57;;;3.40;;
25409;SDS011;13339;50.840;4.346;2023-07-20T07:39:39;5.90;;;3.20;;
25409;SDS011;13339;50.840;4.346;2023-07-20T07:42:05;4.00;;;2.63;;
25409;SDS011;13339;50.840;4.346;2023-07-20T07:44:31;7.43;;;2.07;;
25409;SDS011;13339;50.840;4.346;2023-07-20T07:46:56;3.70;;;2.30;;
25409;SDS011;13339;50.840;4.346;2023-07-20T07:49:22;4.27;;;2.13;;
25409;SDS011;13339;50.840;4.346;2023-07-20T07:51:48;4.93;;;2.90;;
25409;SDS011;13339;50.840;4.346;2023-07-20T07:54:14;3.43;;;2.90;;
25409;SDS011;13339;50.840;4.346;2023-07-20T07:56:40;6.90;;;3.00;;
25409;SDS011;13339;50.840;4.346;2023-07-20T07:59:06;6.93;;;2.80;;
25409;SDS011;13339;50.840;4.346;2023-07-20T08:01:32;4.23;;;2.70;;
25409;SDS011;13339;50.840;4.346;2023-07-20T08:03:57;4.37;;;2.17;;
25409;SDS011;13339;50.840;4.346;2023-07-20T08:06:23;4.77;;;2.00;;
25409;SDS011;13339;50.840;4.346;2023-07-20T08:08:51;3.53;;;2.40;;
25409;SDS011;13339;50.840;4.346;2023-07-20T08:11:17;2.83;;;2.00;;
25409;SDS011;13339;50.840;4.346;2023-07-20T08:13:43;3.63;;;1.77;;
25409;SDS011;13339;50.840;4.346;2023-07-20T08:16:08;5.93;;;2.50;;
25409;SDS011;13339;50.840;4.346;2023-07-20T08:18:34;4.10;;;1.77;;
25409;SDS011;13339;50.840;4.346;2023-07-20T08:21:00;4.50;;;2.07;;
25409;SDS011;13339;50.840;4.346;2023-07-20T08:23:25;2.43;;;2.00;;
25409;SDS011;13339;50.840;4.346;2023-07-20T08:25:52;3.03;;;2.13;;
25409;SDS011;13339;50.840;4.346;2023-07-20T08:28:18;9.37;;;2.50;;
25409;SDS011;13339;50.840;4.346;2023-07-20T08:30:44;17.33;;;2.75;;
25409;SDS011;13339;50.840;4.346;2023-07-20T08:33:15;8.73;;;2.03;;
25409;SDS011;13339;50.840;4.346;2023-07-20T08:35:45;17.60;;;2.70;;
25409;SDS011;13339;50.840;4.346;2023-07-20T08:38:12;7.17;;;2.00;;
25409;SDS011;13339;50.840;4.346;2023-07-20T08:40:41;10.33;;;2.10;;
25409;SDS011;13339;50.840;4.346;2023-07-20T08:43:09;3.37;;;1.80;;
25409;SDS011;13339;50.840;4.346;2023-07-20T08:45:36;2.43;;;1.20;;
25409;SDS011;13339;50.840;4.346;2023-07-20T08:48:03;2.27;;;1.30;;
25409;SDS011;13339;50.840;4.346;2023-07-20T08:50:30;2.00;;;1.30;;
25409;SDS011;13339;50.840;4.346;2023-07-20T08:52:57;3.50;;;2.03;;
25409;SDS011;13339;50.840;4.346;2023-07-20T08:55:24;3.37;;;1.53;;
25409;SDS011;13339;50.840;4.346;2023-07-20T08:57:54;4.10;;;2.60;;
25409;SDS011;13339;50.840;4.346;2023-07-20T09:00:21;5.73;;;2.43;;
25409;SDS011;13339;50.840;4.346;2023-07-20T09:02:49;4.37;;;1.93;;
25409;SDS011;13339;50.840;4.346;2023-07-20T09:05:16;7.80;;;2.90;;
25409;SDS011;13339;50.840;4.346;2023-07-20T09:07:43;6.93;;;4.70;;
25409;SDS011;13339;50.840;4.346;2023-07-20T09:10:08;11.97;;;2.77;;
25409;SDS011;13339;50.840;4.346;2023-07-20T09:12:35;4.70;;;2.00;;
25409;SDS011;13339;50.840;4.346;2023-07-20T09:15:03;3.47;;;1.83;;
25409;SDS011;13339;50.840;4.346;2023-07-20T09:17:29;2.07;;;1.77;;
25409;SDS011;13339;50.840;4.346;2023-07-20T09:19:55;2.43;;;1.60;;
25409;SDS011;13339;50.840;4.346;2023-07-20T09:22:21;4.23;;;1.80;;
25409;SDS011;13339;50.840;4.346;2023-07-20T09:24:46;2.40;;;1.27;;
25409;SDS011;13339;50.840;4.346;2023-07-20T09:27:12;3.37;;;1.60;;
25409;SDS011;13339;50.840;4.346;2023-07-20T09:29:53;3.43;;;1.20;;
25409;SDS011;13339;50.840;4.346;2023-07-20T09:32:19;2.03;;;1.40;;
25409;SDS011;13339;50.840;4.346;2023-07-20T09:34:46;2.30;;;1.40;;
25409;SDS011;13339;50.840;4.346;2023-07-20T09:37:12;1.60;;;1.50;;
25409;SDS011;13339;50.840;4.346;2023-07-20T09:39:44;1.30;;;1.20;;
25409;SDS011;13339;50.840;4.346;2023-07-20T09:42:11;1.77;;;1.30;;
25409;SDS011;13339;50.840;4.346;2023-07-20T09:44:40;1.07;;;1.03;;
25409;SDS011;13339;50.840;4.346;2023-07-20T09:47:08;2.23;;;1.43;;
25409;SDS011;13339;50.840;4.346;2023-07-20T09:49:38;2.73;;;1.67;;
25409;SDS011;13339;50.840;4.346;2023-07-20T09:52:06;3.13;;;1.50;;
25409;SDS011;13339;50.840;4.346;2023-07-20T09:54:34;1.77;;;1.50;;
25409;SDS011;13339;50.840;4.346;2023-07-20T09:57:02;2.37;;;1.63;;
25409;SDS011;13339;50.840;4.346;2023-07-20T09:59:28;6.77;;;1.70;;
25409;SDS011;13339;50.840;4.346;2023-07-20T10:01:54;2.23;;;1.97;;
25409;SDS011;13339;50.840;4.346;2023-07-20T10:04:26;2.60;;;1.10;;
25409;SDS011;13339;50.840;4.346;2023-07-20T10:06:53;2.23;;;1.10;;
25409;SDS011;13339;50.840;4.346;2023-07-20T10:09:23;2.80;;;1.37;;
25409;SDS011;13339;50.840;4.346;2023-07-20T10:11:50;3.07;;;1.37;;
25409;SDS011;13339;50.840;4.346;2023-07-20T10:14:19;2.53;;;1.50;;
25409;SDS011;13339;50.840;4.346;2023-07-20T10:16:47;2.23;;;1.60;;
25409;SDS011;13339;50.840;4.346;2023-07-20T10:22:12;2.53;;;1.60;;
25409;SDS011;13339;50.840;4.346;2023-07-20T10:24:41;2.70;;;1.67;;
25409;SDS011;13339;50.840;4.346;2023-07-20T10:27:09;1.73;;;1.43;;
25409;SDS011;13339;50.840;4.346;2023-07-20T10:29:35;2.30;;;1.60;;
25409;SDS011;13339;50.840;4.346;2023-07-20T10:32:02;3.17;;;1.70;;
25409;SDS011;13339;50.840;4.346;2023-07-20T10:34:28;4.40;;;1.70;;
25409;SDS011;13339;50.840;4.346;2023-07-20T10:36:53;3.03;;;1.60;;
25409;SDS011;13339;50.840;4.346;2023-07-20T10:39:23;2.70;;;1.43;;
25409;SDS011;13339;50.840;4.346;2023-07-20T10:41:49;4.43;;;1.60;;
25409;SDS011;13339;50.840;4.346;2023-07-20T10:44:24;2.10;;;1.83;;
25409;SDS011;13339;50.840;4.346;2023-07-20T10:46:49;2.57;;;1.60;;
25409;SDS011;13339;50.840;4.346;2023-07-20T10:49:23;1.63;;;1.50;;
25409;SDS011;13339;50.840;4.346;2023-07-20T10:51:55;2.22;;;1.67;;
25409;SDS011;13339;50.840;4.346;2023-07-20T10:56:51;3.08;;;1.50;;
25409;SDS011;13339;50.840;4.346;2023-07-20T10:59:17;3.63;;;1.63;;
25409;SDS011;13339;50.840;4.346;2023-07-20T11:01:47;4.05;;;1.65;;
25409;SDS011;13339;50.840;4.346;2023-07-20T11:04:14;2.50;;;1.80;;
25409;SDS011;13339;50.840;4.346;2023-07-20T11:06:54;1.65;;;1.38;;
25409;SDS011;13339;50.840;4.346;2023-07-20T11:09:22;2.47;;;1.60;;
25409;SDS011;13339;50.840;4.346;2023-07-20T11:11:50;2.60;;;1.90;;
25409;SDS011;13339;50.840;4.346;2023-07-20T11:14:54;3.88;;;1.70;;
25409;SDS011;13339;50.840;4.346;2023-07-20T11:17:22;2.00;;;1.80;;
25409;SDS011;13339;50.840;4.346;2023-07-20T11:20:00;4.23;;;2.30;;
25409;SDS011;13339;50.840;4.346;2023-07-20T11:22:27;3.67;;;2.50;;
25409;SDS011;13339;50.840;4.346;2023-07-20T11:24:55;5.13;;;2.27;;
25409;SDS011;13339;50.840;4.346;2023-07-20T11:27:21;2.90;;;2.70;;
25409;SDS011;13339;50.840;4.346;2023-07-20T11:29:49;7.20;;;2.83;;
25409;SDS011;13339;50.840;4.346;2023-07-20T11:32:21;3.05;;;2.35;;
25409;SDS011;13339;50.840;4.346;2023-07-20T11:34:47;4.03;;;2.25;;
25409;SDS011;13339;50.840;4.346;2023-07-20T11:37:14;2.78;;;2.58;;
25409;SDS011;13339;50.840;4.346;2023-07-20T11:39:39;5.30;;;2.55;;
25409;SDS011;13339;50.840;4.346;2023-07-20T11:42:05;5.13;;;2.33;;
25409;SDS011;13339;50.840;4.346;2023-07-20T11:44:34;3.25;;;2.65;;
25409;SDS011;13339;50.840;4.346;2023-07-20T11:47:17;4.63;;;2.45;;
25409;SDS011;13339;50.840;4.346;2023-07-20T11:49:43;7.35;;;3.33;;
25409;SDS011;13339;50.840;4.346;2023-07-20T11:52:15;3.97;;;2.67;;
25409;SDS011;13339;50.840;4.346;2023-07-20T11:54:41;2.97;;;2.78;;
25409;SDS011;13339;50.840;4.346;2023-07-20T11:57:17;4.25;;;2.72;;
25409;SDS011;13339;50.840;4.346;2023-07-20T11:59:54;3.25;;;2.90;;
25409;SDS011;13339;50.840;4.346;2023-07-20T12:02:28;3.00;;;2.70;;
25409;SDS011;13339;50.840;4.346;2023-07-20T12:04:55;4.78;;;3.03;;
25409;SDS011;13339;50.840;4.346;2023-07-20T12:07:21;3.90;;;3.13;;
25409;SDS011;13339;50.840;4.346;2023-07-20T12:10:03;4.15;;;3.20;;
25409;SDS011;13339;50.840;4.346;2023-07-20T12:12:34;3.78;;;3.20;;
25409;SDS011;13339;50.840;4.346;2023-07-20T12:17:55;11.05;;;3.58;;
25409;SDS011;13339;50.840;4.346;2023-07-20T12:20:30;7.13;;;3.15;;
25409;SDS011;13339;50.840;4.346;2023-07-20T12:23:09;3.80;;;3.40;;
25409;SDS011;13339;50.840;4.346;2023-07-20T12:28:10;5.32;;;3.42;;
25409;SDS011;13339;50.840;4.346;2023-07-20T12:30:36;6.75;;;3.30;;
25409;SDS011;13339;50.840;4.346;2023-07-20T12:33:03;3.20;;;2.90;;
25409;SDS011;13339;50.840;4.346;2023-07-20T12:35:29;5.38;;;3.13;;
25409;SDS011;13339;50.840;4.346;2023-07-20T12:37:55;4.00;;;3.17;;
25409;SDS011;13339;50.840;4.346;2023-07-20T12:40:21;5.13;;;3.53;;
25409;SDS011;13339;50.840;4.346;2023-07-20T12:42:47;3.95;;;3.35;;
25409;SDS011;13339;50.840;4.346;2023-07-20T12:45:13;5.87;;;3.43;;
25409;SDS011;13339;50.840;4.346;2023-07-20T12:47:39;8.30;;;3.50;;
25409;SDS011;13339;50.840;4.346;2023-07-20T12:50:05;6.17;;;3.50;;
25409;SDS011;13339;50.840;4.346;2023-07-20T12:52:32;3.70;;;3.40;;
25409;SDS011;13339;50.840;4.346;2023-07-20T12:55:01;6.53;;;3.10;;
25409;SDS011;13339;50.840;4.346;2023-07-20T12:57:27;3.92;;;2.95;;
25409;SDS011;13339;50.840;4.346;2023-07-20T12:59:52;4.77;;;3.20;;
25409;SDS011;13339;50.840;4.346;2023-07-20T13:02:18;4.00;;;3.00;;
25409;SDS011;13339;50.840;4.346;2023-07-20T13:04:43;5.07;;;3.07;;
25409;SDS011;13339;50.840;4.346;2023-07-20T13:07:10;3.30;;;2.60;;
25409;SDS011;13339;50.840;4.346;2023-07-20T13:09:37;5.73;;;3.10;;
25409;SDS011;13339;50.840;4.346;2023-07-20T13:12:02;3.87;;;3.30;;
25409;SDS011;13339;50.840;4.346;2023-07-20T13:14:28;3.37;;;2.70;;
25409;SDS011;13339;50.840;4.346;2023-07-20T13:16:55;3.57;;;3.00;;
25409;SDS011;13339;50.840;4.346;2023-07-20T13:19:21;3.07;;;2.50;;
25409;SDS011;13339;50.840;4.346;2023-07-20T13:21:46;4.63;;;2.90;;
25409;SDS011;13339;50.840;4.346;2023-07-20T13:24:12;5.17;;;3.33;;
25409;SDS011;13339;50.840;4.346;2023-07-20T13:26:38;6.23;;;3.10;;
25409;SDS011;13339;50.840;4.346;2023-07-20T13:29:03;3.03;;;2.73;;
25409;SDS011;13339;50.840;4.346;2023-07-20T13:31:29;5.17;;;3.13;;
25409;SDS011;13339;50.840;4.346;2023-07-20T13:33:55;5.17;;;3.43;;
25409;SDS011;13339;50.840;4.346;2023-07-20T13:36:21;6.97;;;3.17;;
25409;SDS011;13339;50.840;4.346;2023-07-20T13:38:47;5.87;;;2.80;;
25409;SDS011;13339;50.840;4.346;2023-07-20T13:41:13;5.07;;;2.57;;
25409;SDS011;13339;50.840;4.346;2023-07-20T13:43:41;2.67;;;2.47;;
25409;SDS011;13339;50.840;4.346;2023-07-20T13:46:07;8.00;;;2.70;;
25409;SDS011;13339;50.840;4.346;2023-07-20T13:48:32;5.73;;;2.80;;
25409;SDS011;13339;50.840;4.346;2023-07-20T13:50:58;5.53;;;2.47;;
25409;SDS011;13339;50.840;4.346;2023-07-20T13:53:23;3.97;;;2.43;;
25409;SDS011;13339;50.840;4.346;2023-07-20T13:55:49;5.80;;;2.60;;
25409;SDS011;13339;50.840;4.346;2023-07-20T13:58:15;2.67;;;2.47;;
25409;SDS011;13339;50.840;4.346;2023-07-20T14:00:41;5.27;;;3.73;;
25409;SDS011;13339;50.840;4.346;2023-07-20T14:03:06;4.33;;;3.13;;
25409;SDS011;13339;50.840;4.346;2023-07-20T14:05:33;6.23;;;2.30;;
25409;SDS011;13339;50.840;4.346;2023-07-20T14:07:59;3.40;;;2.50;;
25409;SDS011;13339;50.840;4.346;2023-07-20T14:10:24;5.23;;;2.33;;
25409;SDS011;13339;50.840;4.346;2023-07-20T14:12:50;2.70;;;2.20;;
25409;SDS011;13339;50.840;4.346;2023-07-20T14:15:16;3.50;;;2.30;;
25409;SDS011;13339;50.840;4.346;2023-07-20T14:17:42;4.83;;;3.13;;
25409;SDS011;13339;50.840;4.346;2023-07-20T14:20:08;4.73;;;2.63;;
25409;SDS011;13339;50.840;4.346;2023-07-20T14:22:34;4.07;;;2.50;;
25409;SDS011;13339;50.840;4.346;2023-07-20T14:25:00;4.97;;;2.37;;
25409;SDS011;13339;50.840;4.346;2023-07-20T14:27:25;4.43;;;2.73;;
25409;SDS011;13339;50.840;4.346;2023-07-20T14:29:51;4.77;;;2.53;;
25409;SDS011;13339;50.840;4.346;2023-07-20T14:32:18;5.57;;;2.33;;
25409;SDS011;13339;50.840;4.346;2023-07-20T14:34:43;3.37;;;2.20;;
25409;SDS011;13339;50.840;4.346;2023-07-20T14:37:09;5.63;;;2.50;;
25409;SDS011;13339;50.840;4.346;2023-07-20T14:39:35;2.83;;;2.13;;
25409;SDS011;13339;50.840;4.346;2023-07-20T14:42:00;4.63;;;2.53;;
25409;SDS011;13339;50.840;4.346;2023-07-20T14:44:27;7.17;;;2.80;;
25409;SDS011;13339;50.840;4.346;2023-07-20T14:46:52;5.73;;;2.90;;
25409;SDS011;13339;50.840;4.346;2023-07-20T14:49:18;3.93;;;2.60;;
25409;SDS011;13339;50.840;4.346;2023-07-20T14:51:44;3.57;;;2.20;;
25409;SDS011;13339;50.840;4.346;2023-07-20T14:54:12;5.20;;;2.90;;